createdAt,value
2022-11-24T00:04:33.428Z,22.90
2022-11-24T00:09:41.079Z,22.10
2022-11-24T00:14:48.780Z,26.20
2022-11-24T00:19:56.692Z,20.10
2022-11-24T00:25:04.489Z,22.60
2022-11-24T00:30:13.801Z,25.70
2022-11-24T00:35:21.720Z,20.00
2022-11-24T00:40:34.739Z,28.50
2022-11-24T00:45:43.664Z,26.60
2022-11-24T00:50:59.799Z,20.70
2022-11-24T00:56:08.202Z,22.50
2022-11-24T01:01:17.819Z,23.80
2022-11-24T01:06:27.161Z,29.60
2022-11-24T01:11:56.395Z,23.40
2022-11-24T01:17:03.967Z,27.10
2022-11-24T01:22:11.481Z,29.10
2022-11-24T01:27:19.167Z,28.80
2022-11-24T01:32:26.760Z,22.70
2022-11-24T01:37:34.407Z,25.30
2022-11-24T01:42:54.486Z,27.10
2022-11-24T01:48:03.418Z,29.00
2022-11-24T01:53:12.569Z,35.00
2022-11-24T01:58:24.798Z,35.10
2022-11-24T02:08:47.169Z,30.90
2022-11-24T02:13:56.088Z,28.00
2022-11-24T02:19:03.769Z,29.40
2022-11-24T02:24:20.488Z,29.10
2022-11-24T02:29:28.052Z,29.90
2022-11-24T02:34:35.496Z,26.70
2022-11-24T02:39:43.311Z,31.90
2022-11-24T02:44:56.636Z,30.20
2022-11-24T02:50:04.159Z,33.10
2022-11-24T02:55:12.464Z,28.00
2022-11-24T03:00:22.129Z,25.60
2022-11-24T03:05:29.865Z,31.60
2022-11-24T03:10:37.398Z,31.10
2022-11-24T03:15:44.961Z,30.10
2022-11-24T03:20:52.206Z,35.70
2022-11-24T03:26:08.401Z,27.50
2022-11-24T03:31:16.535Z,32.40
2022-11-24T03:36:24.046Z,25.70
2022-11-24T03:41:31.920Z,22.10
2022-11-24T03:46:39.644Z,21.70
2022-11-24T03:51:47.213Z,21.20
2022-11-24T03:56:54.452Z,22.60
2022-11-24T04:02:01.968Z,21.00
2022-11-24T04:07:09.500Z,20.10
2022-11-24T04:12:42.777Z,18.70
2022-11-24T04:17:51.361Z,18.80
2022-11-24T04:22:59.071Z,15.20
2022-11-24T04:28:06.656Z,24.90
2022-11-24T04:33:15.020Z,20.00
2022-11-24T04:39:24.479Z,18.40
2022-11-24T04:43:52.761Z,17.90
2022-11-24T04:49:00.122Z,19.10
2022-11-24T04:54:08.484Z,17.40
2022-11-24T04:59:18.456Z,24.60
2022-11-24T05:04:26.121Z,20.00
2022-11-24T05:09:58.089Z,20.70
2022-11-24T05:15:01.252Z,23.50
2022-11-24T05:20:10.343Z,19.40
2022-11-24T05:25:18.209Z,25.30
2022-11-24T05:30:25.841Z,25.90
2022-11-24T05:35:33.517Z,24.60
2022-11-24T05:40:41.221Z,23.20
2022-11-24T05:45:48.847Z,24.90
2022-11-24T05:50:59.487Z,15.90
2022-11-24T05:56:09.213Z,18.40
2022-11-24T06:01:16.989Z,16.90
2022-11-24T06:06:24.529Z,16.40
2022-11-24T06:11:32.040Z,19.90
2022-11-24T06:16:39.554Z,20.30
2022-11-24T06:21:47.000Z,15.60
2022-11-24T06:26:54.602Z,15.00
2022-11-24T06:32:02.019Z,17.60
2022-11-24T06:37:09.566Z,18.80
2022-11-24T06:42:19.319Z,15.10
2022-11-24T06:47:27.061Z,14.10
2022-11-24T06:52:34.564Z,16.50
2022-11-24T06:57:42.371Z,20.00
2022-11-24T07:02:50.014Z,15.20
2022-11-24T07:07:57.694Z,18.30
2022-11-24T07:13:05.521Z,15.40
2022-11-24T07:18:12.968Z,14.50
2022-11-24T07:23:20.361Z,17.00
2022-11-24T07:28:27.725Z,16.00
2022-11-24T07:33:35.165Z,16.40
2022-11-24T07:38:42.639Z,14.70
2022-11-24T07:43:51.088Z,14.10
2022-11-24T07:48:59.201Z,15.30
2022-11-24T07:54:07.013Z,15.70
2022-11-24T07:59:17.236Z,14.80
2022-11-24T08:04:24.758Z,15.70
2022-11-24T08:09:32.145Z,18.30
2022-11-24T08:14:39.680Z,25.30
2022-11-24T08:19:47.546Z,20.20
2022-11-24T08:24:55.090Z,19.60
2022-11-24T08:30:02.500Z,25.90
2022-11-24T08:35:14.373Z,48.00
2022-11-24T08:45:30.678Z,21.90
2022-11-24T08:50:38.919Z,21.50
2022-11-24T08:55:46.573Z,25.80
2022-11-24T09:00:54.182Z,24.10
2022-11-24T09:06:01.494Z,24.60
2022-11-24T09:11:11.279Z,27.10
2022-11-24T09:16:20.399Z,28.60
2022-11-24T09:21:27.928Z,27.90
2022-11-24T09:26:37.295Z,33.10
2022-11-24T09:31:44.646Z,30.50
2022-11-24T09:36:52.000Z,29.30
2022-11-24T09:42:24.545Z,24.80
2022-11-24T09:47:48.139Z,59.50
2022-11-24T09:53:02.325Z,43.20
2022-11-24T09:58:32.492Z,34.40
2022-11-24T10:03:45.127Z,34.40
2022-11-24T10:09:27.219Z,32.70
2022-11-24T10:14:52.979Z,37.90
2022-11-24T10:20:08.321Z,37.70
2022-11-24T10:25:26.904Z,41.10
2022-11-24T10:30:35.000Z,33.10
2022-11-24T10:35:47.371Z,41.50
2022-11-24T10:40:59.438Z,55.80
2022-11-24T10:46:16.932Z,86.40
2022-11-24T10:51:49.416Z,71.50
2022-11-24T10:56:58.628Z,48.80
2022-11-24T11:02:21.944Z,47.30
2022-11-24T11:07:30.769Z,36.90
2022-11-24T11:12:45.731Z,29.70
2022-11-24T11:17:58.361Z,35.40
2022-11-24T11:23:16.204Z,35.50
2022-11-24T11:28:31.522Z,32.00
2022-11-24T11:39:07.690Z,109.20
2022-11-24T11:44:27.889Z,53.30
2022-11-24T11:49:36.327Z,35.20
2022-11-24T11:55:05.780Z,53.50
2022-11-24T12:00:20.767Z,52.60
2022-11-24T12:05:40.660Z,38.30
2022-11-24T12:10:55.845Z,33.70
2022-11-24T12:16:13.416Z,31.90
2022-11-24T12:21:26.796Z,39.70
2022-11-24T12:26:42.918Z,56.00
2022-11-24T12:32:01.320Z,43.80
2022-11-24T12:37:23.453Z,36.90
2022-11-24T12:42:45.891Z,33.60
2022-11-24T12:48:32.053Z,47.40
2022-11-24T12:53:42.047Z,51.70
2022-11-24T12:59:00.269Z,55.00
2022-11-24T13:04:23.405Z,41.10
2022-11-24T13:09:31.020Z,34.10
2022-11-24T13:14:41.207Z,37.30
2022-11-24T13:19:48.809Z,31.00
2022-11-24T13:25:19.699Z,30.80
2022-11-24T13:31:02.304Z,31.20
2022-11-24T13:36:33.239Z,112.40
2022-11-24T13:42:41.751Z,125.40
2022-11-24T13:47:45.620Z,56.50
2022-11-24T13:53:02.236Z,50.10
2022-11-24T13:58:37.960Z,104.50
2022-11-24T14:04:30.005Z,139.50
2022-11-24T14:09:35.118Z,80.10
2022-11-24T14:14:43.133Z,92.60
2022-11-24T14:19:52.389Z,96.10
2022-11-24T14:25:01.739Z,52.00
2022-11-24T14:30:22.223Z,61.00
2022-11-24T14:35:31.968Z,46.70
2022-11-24T14:40:45.767Z,38.40
2022-11-24T14:45:59.526Z,50.50
2022-11-24T14:51:22.019Z,71.10
2022-11-24T14:56:31.615Z,82.80
2022-11-24T15:01:39.181Z,75.30
2022-11-24T15:06:48.679Z,73.80
2022-11-24T15:11:57.120Z,66.00
2022-11-24T15:17:04.893Z,49.20
2022-11-24T15:22:49.840Z,36.00
2022-11-24T15:27:58.214Z,29.80
2022-11-24T15:33:12.399Z,27.60
2022-11-24T15:38:19.808Z,31.70
2022-11-24T15:43:32.444Z,40.70
2022-11-24T15:48:40.008Z,61.80
2022-11-24T15:53:51.073Z,58.90
2022-11-24T15:58:59.166Z,60.40
2022-11-24T16:04:06.680Z,78.30
2022-11-24T16:09:17.969Z,65.80
2022-11-24T16:14:25.772Z,34.90
2022-11-24T16:19:36.174Z,45.70
2022-11-24T16:24:47.747Z,103.80
2022-11-24T16:29:55.258Z,120.40
2022-11-24T16:35:02.802Z,73.50
2022-11-24T16:40:12.202Z,75.10
2022-11-24T16:45:19.705Z,223.70
2022-11-24T16:50:27.201Z,159.10
2022-11-24T16:55:34.440Z,94.30
2022-11-24T17:00:42.305Z,151.60
2022-11-24T17:06:00.327Z,92.30
2022-11-24T17:11:11.675Z,147.10
2022-11-24T17:16:21.092Z,135.20
2022-11-24T17:21:29.599Z,168.60
2022-11-24T17:26:37.070Z,77.90
2022-11-24T17:31:44.517Z,43.00
2022-11-24T17:36:52.336Z,27.20
2022-11-24T17:42:00.222Z,21.10
2022-11-24T17:47:07.803Z,35.10
2022-11-24T17:52:16.147Z,27.50
2022-11-24T17:57:23.601Z,21.80
2022-11-24T18:02:31.258Z,62.20
2022-11-24T18:07:40.600Z,44.50
2022-11-24T18:12:48.319Z,38.90
2022-11-24T18:17:56.946Z,30.20
2022-11-24T18:23:05.877Z,41.90
2022-11-24T18:28:13.949Z,28.70
2022-11-24T18:33:22.060Z,24.80
2022-11-24T18:38:30.159Z,31.20
2022-11-24T18:43:39.327Z,26.50
2022-11-24T18:48:47.921Z,21.60
2022-11-24T18:53:58.420Z,19.30
2022-11-24T18:59:05.807Z,19.40
2022-11-24T19:04:15.721Z,17.20
2022-11-24T19:09:23.318Z,17.10
2022-11-24T19:14:30.960Z,19.40
2022-11-24T19:19:40.131Z,15.80
2022-11-24T19:24:50.444Z,16.70
2022-11-24T19:29:57.625Z,19.00
2022-11-24T19:35:05.204Z,19.10
2022-11-24T19:40:14.521Z,19.00
2022-11-24T19:45:21.934Z,20.40
2022-11-24T19:50:29.562Z,20.40
2022-11-24T19:55:37.401Z,19.80
2022-11-24T20:00:45.001Z,26.80
2022-11-24T20:05:59.847Z,59.60
2022-11-24T20:11:08.720Z,65.80
2022-11-24T20:16:17.941Z,44.90
2022-11-24T20:21:29.203Z,29.40
2022-11-24T20:26:38.281Z,29.20
2022-11-24T20:31:47.273Z,27.00
2022-11-24T20:36:54.765Z,23.20
2022-11-24T20:42:02.128Z,22.60
2022-11-24T20:47:09.667Z,20.60
2022-11-24T20:52:17.314Z,23.90
2022-11-24T20:57:24.689Z,24.00
2022-11-24T21:02:32.380Z,23.60
2022-11-24T21:07:40.144Z,23.90
2022-11-24T21:12:47.580Z,26.20
2022-11-24T21:17:55.122Z,23.00
2022-11-24T21:23:03.562Z,31.60
2022-11-24T21:28:13.460Z,24.10
2022-11-24T21:33:21.602Z,25.70
2022-11-24T21:38:29.364Z,28.00
2022-11-24T21:43:37.460Z,30.20
2022-11-24T21:48:45.335Z,31.50
2022-11-24T21:53:52.769Z,30.80
2022-11-24T21:59:00.800Z,30.40
2022-11-24T22:04:08.546Z,31.80
2022-11-24T22:09:18.260Z,30.70
2022-11-24T22:14:26.040Z,30.90
2022-11-24T22:19:33.562Z,31.20
2022-11-24T22:24:41.322Z,31.30
2022-11-24T22:29:54.027Z,36.10
2022-11-24T22:35:02.125Z,40.90
2022-11-24T22:40:11.640Z,41.80
2022-11-24T22:45:19.198Z,43.50
2022-11-24T22:50:26.525Z,50.50
2022-11-24T22:55:35.605Z,51.40
2022-11-24T23:00:43.001Z,66.10
2022-11-24T23:05:50.416Z,48.10
2022-11-24T23:11:03.002Z,41.40
2022-11-24T23:16:12.461Z,45.80
2022-11-24T23:21:21.073Z,48.10
2022-11-24T23:26:30.355Z,47.30
2022-11-24T23:31:40.296Z,46.20
2022-11-24T23:36:47.833Z,44.30
2022-11-24T23:41:55.244Z,45.00
2022-11-24T23:47:02.456Z,40.30
2022-11-24T23:52:10.116Z,42.70
2022-11-24T23:57:17.485Z,41.90
